This is the latest recevied weather packets stored in our database for station/object OK1VOF-13. If no packets are shown the sender has not sent any weather packets the latest 10 day(s).
| Time | Temp. | Humidity | Pressure | Rain* | Wind** | Luminosity | Snow |
|---|---|---|---|---|---|---|---|
| 1777644289 | 35° C | 12% | 1026.7 hPa | 0 mm | - | - | - |
| 1777643989 | 33.89° C | 13% | 1026.7 hPa | 0 mm | - | - | - |
| 1777643691 | 35.56° C | 12% | 1026.6 hPa | 0 mm | - | - | - |
| 1777643396 | 41.67° C | 8% | 1026.8 hPa | 0 mm | - | - | - |
| 1777643391 | 41.67° C | 8% | 1026.8 hPa | 0 mm | - | - | - |
| 1777643092 | 44.44° C | 6% | 1026.9 hPa | 0 mm | - | - | - |
| 1777642793 | 48.89° C | 5% | 1027 hPa | 0 mm | - | - | - |
| 1777642494 | 43.89° C | 6% | 1027.1 hPa | 0 mm | - | - | - |
| 1777642194 | 41.11° C | 8% | 1027.3 hPa | 0 mm | - | - | - |
| 1777641895 | 44.44° C | 6% | 1027.3 hPa | 0 mm | - | - | - |
| 1777641596 | 45.56° C | 6% | 1027.3 hPa | 0 mm | - | - | - |
| 1777640998 | 40.56° C | 8% | 1027.6 hPa | 0 mm | - | - | - |
| 1777640699 | 38.33° C | 9% | 1027.7 hPa | 0 mm | - | - | - |
| 1777640400 | 39.44° C | 9% | 1027.7 hPa | 0 mm | - | - | - |
| 1777639801 | 37.22° C | 11% | 1027.8 hPa | 0 mm | - | - | - |
| 1777639502 | 41.11° C | 8% | 1027.9 hPa | 0 mm | - | - | - |
| 1777638909 | 36.11° C | 12% | 1028 hPa | 0 mm | - | - | - |
| 1777638903 | 36.11° C | 12% | 1028 hPa | 0 mm | - | - | - |
| 1777638006 | 28.33° C | 18% | 1028.1 hPa | 0 mm | - | - | - |
| 1777637409 | 21.67° C | 26% | 1028.3 hPa | 0 mm | - | - | - |
| 1777637404 | 21.67° C | 26% | 1028.3 hPa | 0 mm | - | - | - |
| 1777637105 | 21.11° C | 26% | 1028.2 hPa | 0 mm | - | - | - |
| 1777636805 | 20.56° C | 26% | 1028.3 hPa | 0 mm | - | - | - |
| 1777636506 | 20° C | 27% | 1028.4 hPa | 0 mm | - | - | - |
| 1777636212 | 19.44° C | 28% | 1028.6 hPa | 0 mm | - | - | - |
* Rain latest hour (hover to see other rain measurements)
** Current wind speed in m/s (hover to see current wind gust speed)